Time;durP1;ratioP1;P1;durP2;ratioP2;P2;SDS_P1;SDS_P2;PMS_P1;PMS_P2;Temp;Humidity;BMP_temperature;BMP_pressure;BME280_temperature;BME280_humidity;BME280_pressure;Samples;Min_cycle;Max_cycle;Signal;HPM_P1;HPM_P2
2023/12/02 00:01:49;;;;;;;12.15;6.45;;;;;;;1.70;62.97;95949.25;4977051;28;20097;-79
2023/12/02 00:04:14;;;;;;;13.07;6.75;;;;;;;1.65;63.44;95962.72;5005540;28;20426;-78
2023/12/02 00:06:40;;;;;;;12.07;6.30;;;;;;;1.56;63.86;95968.38;5006707;28;20037;-79
2023/12/02 00:09:05;;;;;;;11.38;6.13;;;;;;;1.60;63.93;95967.72;5005814;28;20052;-78
2023/12/02 00:11:31;;;;;;;15.20;6.50;;;;;;;1.65;63.47;95970.44;5007417;28;20112;-78
2023/12/02 00:13:56;;;;;;;10.77;5.88;;;;;;;1.88;63.52;95979.22;4990990;28;20549;-79
2023/12/02 00:16:21;;;;;;;11.52;5.97;;;;;;;1.92;63.55;95984.69;5006565;28;20049;-79
2023/12/02 00:18:47;;;;;;;11.77;6.00;;;;;;;1.76;62.95;95970.69;5006331;28;20445;-78
2023/12/02 00:21:12;;;;;;;11.70;6.40;;;;;;;1.42;64.27;95963.44;4974063;28;20184;-79
2023/12/02 00:23:37;;;;;;;12.85;6.82;;;;;;;1.26;65.21;95962.22;5007102;28;20590;-79
2023/12/02 00:26:03;;;;;;;11.95;7.15;;;;;;;1.38;64.49;95952.03;4978034;28;20035;-78
2023/12/02 00:28:28;;;;;;;15.10;8.60;;;;;;;1.42;64.04;95944.69;5006673;28;20413;-79
2023/12/02 00:30:54;;;;;;;11.98;6.32;;;;;;;1.22;64.15;95943.16;4975751;28;20069;-78
2023/12/02 00:33:19;;;;;;;13.88;6.60;;;;;;;0.98;65.29;95939.66;4973558;28;20036;-79
2023/12/02 00:35:44;;;;;;;12.48;6.35;;;;;;;1.32;64.48;95940.06;4990561;28;20045;-80
2023/12/02 00:38:10;;;;;;;14.07;7.00;;;;;;;1.45;63.52;95944.25;5005994;28;20334;-80
2023/12/02 00:40:35;;;;;;;13.88;6.55;;;;;;;1.38;63.73;95953.81;4980782;28;20046;-80
2023/12/02 00:43:00;;;;;;;12.65;6.63;;;;;;;1.29;64.35;95943.84;4988302;28;20121;-79
2023/12/02 00:45:26;;;;;;;12.00;6.13;;;;;;;1.15;63.71;95945.00;4959267;28;20390;-88
2023/12/02 00:47:51;;;;;;;11.18;6.20;;;;;;;1.17;64.57;95955.81;4981829;28;20045;-86
2023/12/02 00:50:17;;;;;;;13.63;7.40;;;;;;;1.33;63.63;95945.97;4978405;28;20033;-87
2023/12/02 00:52:42;;;;;;;12.20;6.43;;;;;;;1.46;64.18;95950.97;5011975;28;20046;-86
2023/12/02 00:55:08;;;;;;;15.15;6.68;;;;;;;1.29;63.72;95950.75;4994613;28;20026;-84
2023/12/02 00:57:34;;;;;;;12.13;6.45;;;;;;;1.38;63.95;95949.47;4993866;28;20426;-85
2023/12/02 00:59:59;;;;;;;12.43;7.22;;;;;;;1.27;63.98;95948.41;4986317;28;20084;-84
2023/12/02 01:02:24;;;;;;;13.25;6.68;;;;;;;1.66;63.08;95954.06;4999969;28;20030;-86
2023/12/02 01:04:52;;;;;;;11.23;6.03;;;;;;;1.89;62.32;95956.91;4964162;28;20034;-85
2023/12/02 01:07:17;;;;;;;10.32;5.30;;;;;;;1.86;62.47;95955.56;5005201;28;20538;-85
2023/12/02 01:09:43;;;;;;;10.40;5.57;;;;;;;1.54;63.73;95955.75;4975018;28;20406;-86
2023/12/02 01:12:08;;;;;;;11.20;6.47;;;;;;;1.61;62.71;95958.25;4984065;28;20404;-84
2023/12/02 01:14:34;;;;;;;13.00;6.10;;;;;;;1.55;63.23;95972.72;4994423;28;20102;-85
2023/12/02 01:17:00;;;;;;;10.40;5.43;;;;;;;1.78;62.14;95978.94;5011124;28;20042;-84
2023/12/02 01:19:25;;;;;;;10.85;5.20;;;;;;;1.86;61.10;95976.84;5010558;28;20065;-83
2023/12/02 01:21:50;;;;;;;9.57;5.18;;;;;;;1.80;61.93;95987.22;4985483;28;20057;-85
2023/12/02 01:24:16;;;;;;;11.13;5.78;;;;;;;1.60;62.25;95983.13;4994112;28;20041;-86
2023/12/02 01:26:42;;;;;;;10.55;5.05;;;;;;;1.87;61.80;95978.44;4981802;28;20034;-83
2023/12/02 01:29:08;;;;;;;11.85;5.82;;;;;;;2.01;61.96;95984.16;4977091;28;20474;-85
2023/12/02 01:31:33;;;;;;;11.10;5.25;;;;;;;1.83;61.85;95976.53;4987339;28;20117;-84
2023/12/02 01:33:59;;;;;;;10.35;5.80;;;;;;;2.07;61.29;95987.63;4990398;28;20141;-83
2023/12/02 01:36:24;;;;;;;10.88;5.70;;;;;;;1.91;62.34;95985.72;4957775;28;20613;-79
2023/12/02 01:38:50;;;;;;;12.07;6.25;;;;;;;1.75;62.47;95993.00;4996942;28;20026;-80
2023/12/02 01:41:15;;;;;;;12.18;5.88;;;;;;;1.79;61.75;95995.94;4979953;28;20057;-78
2023/12/02 01:43:40;;;;;;;15.10;6.35;;;;;;;1.74;62.17;96003.50;4993606;28;20034;-80
2023/12/02 01:46:06;;;;;;;12.65;6.35;;;;;;;1.44;62.54;95997.34;5002146;28;20038;-80
2023/12/02 01:48:35;;;;;;;13.18;5.93;;;;;;;1.50;63.26;96013.63;5009990;28;20034;-79
2023/12/02 01:51:01;;;;;;;12.60;7.13;;;;;;;1.57;62.69;96016.13;5009000;28;20468;-80
2023/12/02 01:53:27;;;;;;;13.65;7.07;;;;;;;1.63;62.16;96008.34;5009508;28;20541;-79
2023/12/02 01:55:54;;;;;;;12.52;5.70;;;;;;;1.87;61.52;96021.28;4992606;28;20129;-80
2023/12/02 01:58:19;;;;;;;12.30;6.00;;;;;;;1.37;62.81;96008.66;4976555;28;20065;-84
2023/12/02 02:00:45;;;;;;;13.82;6.38;;;;;;;1.66;62.23;96015.63;4991981;28;20084;-85
2023/12/02 02:03:10;;;;;;;12.05;6.20;;;;;;;1.59;62.35;96012.34;4982745;28;20033;-85
2023/12/02 02:05:36;;;;;;;12.05;6.75;;;;;;;1.43;62.70;96013.72;4992803;28;20091;-86
2023/12/02 02:08:01;;;;;;;9.88;5.22;;;;;;;1.41;62.47;96005.44;4992031;28;20112;-84
2023/12/02 02:10:27;;;;;;;13.73;5.85;;;;;;;1.38;62.92;96010.22;5009690;28;20411;-85
2023/12/02 02:12:52;;;;;;;11.35;6.00;;;;;;;1.37;63.04;96021.47;5001195;28;20030;-84
2023/12/02 02:15:18;;;;;;;12.20;6.45;;;;;;;1.68;62.37;96026.44;4976587;28;20045;-84
2023/12/02 02:17:43;;;;;;;10.68;5.55;;;;;;;1.39;62.63;96022.84;4992648;28;20030;-84
2023/12/02 02:20:09;;;;;;;12.15;6.28;;;;;;;1.67;62.01;96016.41;4975082;28;20099;-88
2023/12/02 02:22:35;;;;;;;9.70;5.15;;;;;;;1.49;61.72;96012.06;4957442;28;20391;-84
2023/12/02 02:25:00;;;;;;;11.88;6.13;;;;;;;1.13;63.67;96026.44;4973763;28;20037;-86
2023/12/02 02:27:26;;;;;;;12.98;6.05;;;;;;;1.02;62.92;96022.03;5017521;28;20049;-84
2023/12/02 02:29:51;;;;;;;11.07;6.15;;;;;;;1.05;63.32;96029.31;4992989;28;20041;-84
2023/12/02 02:32:16;;;;;;;12.07;5.95;;;;;;;0.84;64.10;96022.78;4961384;28;20041;-85
2023/12/02 02:34:42;;;;;;;10.30;5.20;;;;;;;0.88;63.61;96022.16;5010037;28;20034;-84
2023/12/02 02:37:08;;;;;;;11.77;5.97;;;;;;;0.57;64.62;96030.69;4975869;28;20037;-87
2023/12/02 02:39:33;;;;;;;11.52;5.47;;;;;;;0.71;64.06;96034.72;4983458;28;20066;-86
2023/12/02 02:41:58;;;;;;;12.40;5.93;;;;;;;0.67;64.05;96019.97;4990553;28;20027;-86
2023/12/02 02:44:24;;;;;;;11.93;5.13;;;;;;;0.74;63.57;96033.53;5009243;28;20482;-85
2023/12/02 02:46:49;;;;;;;12.50;6.55;;;;;;;0.72;64.40;96038.03;4992799;28;20026;-80
2023/12/02 02:49:14;;;;;;;11.02;5.30;;;;;;;0.88;62.62;96032.41;5008221;28;20431;-79
2023/12/02 02:51:40;;;;;;;12.40;5.43;;;;;;;1.03;63.31;96044.09;4986211;28;20093;-80
2023/12/02 02:54:05;;;;;;;10.68;5.57;;;;;;;1.01;63.39;96033.28;4989487;28;20034;-80
2023/12/02 02:56:31;;;;;;;11.27;5.70;;;;;;;1.22;62.74;96037.22;4992089;28;20533;-79
2023/12/02 02:58:57;;;;;;;13.27;5.80;;;;;;;1.18;61.86;96024.03;4991882;28;20037;-80
2023/12/02 03:01:22;;;;;;;9.02;4.90;;;;;;;1.26;62.64;96038.34;4970186;28;20073;-80
2023/12/02 03:03:48;;;;;;;11.10;6.03;;;;;;;1.34;61.25;96037.28;4967640;28;20042;-80
2023/12/02 03:06:13;;;;;;;11.07;5.20;;;;;;;1.40;60.69;96044.91;4982201;28;20068;-80
2023/12/02 03:08:39;;;;;;;10.27;5.47;;;;;;;1.46;61.46;96043.28;4991316;28;20049;-79
2023/12/02 03:11:05;;;;;;;13.55;5.97;;;;;;;1.40;61.70;96039.00;4991173;28;20030;-79
2023/12/02 03:13:30;;;;;;;9.88;5.07;;;;;;;1.27;61.27;96038.16;4991946;28;20069;-80
2023/12/02 03:15:56;;;;;;;10.00;4.60;;;;;;;1.22;61.70;96037.22;5007587;28;20056;-79
2023/12/02 03:18:21;;;;;;;11.48;5.13;;;;;;;1.11;60.73;96046.38;4990717;28;20053;-80
2023/12/02 03:20:47;;;;;;;10.77;5.72;;;;;;;1.19;61.33;96050.47;5008076;28;20037;-79
2023/12/02 03:23:12;;;;;;;12.05;5.57;;;;;;;1.14;61.89;96037.50;5007320;28;20030;-79
2023/12/02 03:25:37;;;;;;;10.82;5.25;;;;;;;1.09;61.43;96043.25;4998653;28;20483;-79
2023/12/02 03:28:03;;;;;;;9.18;4.93;;;;;;;1.32;61.05;96042.66;4973647;28;20031;-80
2023/12/02 03:30:28;;;;;;;10.65;4.88;;;;;;;1.14;61.22;96040.06;4992358;28;20065;-79
2023/12/02 03:32:54;;;;;;;9.30;5.25;;;;;;;1.10;61.02;96035.34;4981684;28;20033;-79
2023/12/02 03:35:19;;;;;;;10.02;5.63;;;;;;;0.71;61.69;96046.75;5007445;28;20038;-79
2023/12/02 03:37:45;;;;;;;9.35;5.32;;;;;;;1.03;62.19;96051.78;4961186;28;20034;-79
2023/12/02 03:40:10;;;;;;;11.82;5.43;;;;;;;0.80;62.52;96042.13;4984437;28;20085;-79
2023/12/02 03:42:36;;;;;;;9.88;4.85;;;;;;;0.95;62.10;96057.19;4994484;28;20548;-79
2023/12/02 03:45:02;;;;;;;12.93;5.45;;;;;;;0.97;60.73;96044.94;5006993;28;20034;-80
2023/12/02 03:47:28;;;;;;;10.98;5.43;;;;;;;1.12;61.22;96043.63;4990825;28;20490;-80
2023/12/02 03:49:53;;;;;;;9.70;4.82;;;;;;;1.02;61.46;96057.91;4991538;28;20077;-79
2023/12/02 03:52:19;;;;;;;11.65;4.72;;;;;;;0.63;61.90;96052.91;5006994;28;20149;-81
2023/12/02 03:54:44;;;;;;;12.43;5.43;;;;;;;0.82;62.13;96058.06;4990636;28;20041;-80
2023/12/02 03:57:09;;;;;;;9.43;4.90;;;;;;;0.81;61.84;96062.44;4982418;28;20034;-79
2023/12/02 03:59:35;;;;;;;11.93;5.15;;;;;;;0.38;62.58;96068.25;5008483;28;20087;-78
2023/12/02 04:02:01;;;;;;;11.43;5.85;;;;;;;0.42;63.02;96069.41;4977352;28;20109;-80
2023/12/02 04:04:26;;;;;;;12.20;6.53;;;;;;;0.28;62.46;96062.81;4992941;28;20064;-78
2023/12/02 04:06:52;;;;;;;9.52;5.35;;;;;;;0.64;61.39;96079.31;4989861;28;20030;-80
2023/12/02 04:09:17;;;;;;;12.50;5.68;;;;;;;0.47;62.01;96081.59;5006814;28;20044;-79
2023/12/02 04:11:46;;;;;;;11.43;5.45;;;;;;;0.74;61.20;96077.06;5007122;28;20514;-80
2023/12/02 04:14:12;;;;;;;11.65;4.93;;;;;;;0.94;61.58;96074.34;5005918;28;20331;-80
2023/12/02 04:16:41;;;;;;;11.18;4.85;;;;;;;1.10;60.31;96081.50;4955345;28;20550;-85
2023/12/02 04:19:10;;;;;;;11.02;6.28;;;;;;;0.88;61.53;96088.00;4938427;28;20458;-87
2023/12/02 04:21:36;;;;;;;10.68;5.95;;;;;;;0.91;61.89;96093.50;4981230;28;20049;-86
2023/12/02 04:24:04;;;;;;;9.30;5.20;;;;;;;0.66;60.63;96080.66;5012383;28;20478;-85
2023/12/02 04:26:30;;;;;;;11.15;5.03;;;;;;;0.85;60.80;96076.38;4994409;28;20034;-85
2023/12/02 04:28:55;;;;;;;11.20;5.32;;;;;;;0.72;61.91;96095.22;4975116;28;20474;-84
2023/12/02 04:31:21;;;;;;;10.18;5.18;;;;;;;0.58;61.69;96082.69;4985155;28;20121;-85
2023/12/02 04:33:47;;;;;;;9.80;5.07;;;;;;;0.88;60.01;96098.25;4987740;28;20479;-84
2023/12/02 04:36:14;;;;;;;8.82;4.85;;;;;;;0.91;61.46;96105.53;4997079;28;20026;-86
2023/12/02 04:38:40;;;;;;;11.00;5.30;;;;;;;0.70;62.61;96111.78;4974782;28;20453;-86
2023/12/02 04:41:05;;;;;;;8.90;4.55;;;;;;;0.71;61.79;96113.34;4977188;28;20027;-85
2023/12/02 04:43:31;;;;;;;12.48;5.15;;;;;;;0.84;60.60;96115.81;4990842;28;20065;-86
2023/12/02 04:45:56;;;;;;;10.68;4.90;;;;;;;0.70;61.67;96124.56;4974183;28;20041;-86
2023/12/02 04:48:22;;;;;;;9.50;4.78;;;;;;;0.53;61.64;96129.41;4989904;28;20077;-85
2023/12/02 04:50:48;;;;;;;9.27;4.63;;;;;;;0.46;62.26;96141.47;4991239;28;20489;-86
2023/12/02 04:53:13;;;;;;;10.45;5.75;;;;;;;0.63;61.74;96146.91;4974657;28;20034;-87
2023/12/02 04:55:39;;;;;;;11.07;5.20;;;;;;;0.31;62.42;96141.72;4990706;28;20447;-86
2023/12/02 04:58:05;;;;;;;11.40;5.78;;;;;;;0.58;61.51;96146.72;4965944;28;20405;-85
2023/12/02 05:00:31;;;;;;;9.30;5.00;;;;;;;0.52;62.11;96158.59;5006924;28;20044;-87
2023/12/02 05:02:56;;;;;;;9.95;5.30;;;;;;;0.46;61.90;96144.81;4954582;28;20026;-83
2023/12/02 05:05:21;;;;;;;10.98;5.85;;;;;;;0.20;62.73;96155.19;4975524;28;20033;-86
2023/12/02 05:07:47;;;;;;;9.23;4.80;;;;;;;0.27;62.08;96161.06;4974560;28;20076;-80
2023/12/02 05:10:12;;;;;;;12.00;5.43;;;;;;;0.55;60.81;96165.88;4989698;28;20421;-80
2023/12/02 05:12:38;;;;;;;8.60;4.63;;;;;;;0.62;60.82;96170.94;4989821;28;20482;-80
2023/12/02 05:15:04;;;;;;;9.32;4.57;;;;;;;0.45;61.12;96186.78;4989658;28;20040;-80
2023/12/02 05:17:29;;;;;;;10.80;4.38;;;;;;;0.04;61.45;96190.50;5006349;28;20088;-80
2023/12/02 05:19:55;;;;;;;9.32;4.57;;;;;;;0.19;61.42;96192.81;4990510;28;20041;-80
2023/12/02 05:22:21;;;;;;;8.35;4.60;;;;;;;0.19;61.75;96182.56;5006356;28;20087;-80
2023/12/02 05:24:46;;;;;;;8.15;4.68;;;;;;;0.13;62.21;96198.72;4987430;28;20034;-78
2023/12/02 05:27:12;;;;;;;9.20;4.88;;;;;;;-0.26;62.89;96208.88;4997150;28;20037;-80
2023/12/02 05:29:38;;;;;;;8.77;4.85;;;;;;;-0.08;61.60;96197.22;4986839;28;20070;-80
2023/12/02 05:32:03;;;;;;;7.38;3.72;;;;;;;0.10;62.32;96219.59;4974451;28;20096;-80
2023/12/02 05:34:29;;;;;;;9.52;4.80;;;;;;;-0.02;61.65;96204.06;4993694;28;20516;-80
2023/12/02 05:36:54;;;;;;;8.00;4.65;;;;;;;0.20;62.17;96219.97;5009185;28;20033;-80
2023/12/02 05:39:20;;;;;;;15.48;6.95;;;;;;;0.08;61.57;96222.34;4977343;28;20095;-80
2023/12/02 05:41:45;;;;;;;8.55;4.35;;;;;;;0.41;60.89;96230.91;4964317;28;20030;-79
2023/12/02 05:44:11;;;;;;;10.38;5.57;;;;;;;0.14;61.77;96226.69;4992838;28;20038;-79
2023/12/02 05:46:39;;;;;;;10.40;4.25;;;;;;;0.26;60.72;96226.03;5009386;28;20485;-80
2023/12/02 05:49:05;;;;;;;11.73;6.18;;;;;;;0.14;61.56;96236.13;4992591;28;20030;-80
2023/12/02 05:51:30;;;;;;;9.90;4.60;;;;;;;-0.03;62.34;96248.56;4976702;28;20478;-80
2023/12/02 05:53:56;;;;;;;7.43;4.30;;;;;;;0.33;60.76;96237.06;4993199;28;20521;-80
2023/12/02 05:56:21;;;;;;;8.75;4.55;;;;;;;0.47;60.75;96253.16;4992185;28;20425;-80
2023/12/02 05:58:48;;;;;;;8.15;5.07;;;;;;;0.40;60.65;96240.38;4993406;28;20045;-81
2023/12/02 06:01:22;;;;;;;8.25;4.70;;;;;;;0.61;60.21;96259.81;4960013;28;20023;-80
2023/12/02 06:03:48;;;;;;;7.90;4.60;;;;;;;0.52;60.73;96246.44;5000349;28;20060;-80
2023/12/02 06:06:14;;;;;;;8.43;4.65;;;;;;;0.50;60.83;96263.00;4982175;28;20502;-81
2023/12/02 06:08:39;;;;;;;9.95;5.10;;;;;;;0.35;60.37;96258.13;4997206;28;20038;-80
2023/12/02 06:11:05;;;;;;;7.88;4.28;;;;;;;0.60;59.65;96257.44;4975064;28;20034;-81
2023/12/02 06:13:30;;;;;;;6.57;3.63;;;;;;;0.65;60.04;96253.31;4975981;28;20084;-80
2023/12/02 06:15:59;;;;;;;8.20;4.15;;;;;;;0.71;59.75;96260.16;5007924;28;20413;-81
2023/12/02 06:18:24;;;;;;;8.77;4.53;;;;;;;0.60;59.69;96257.44;4991145;28;20132;-80
2023/12/02 06:20:50;;;;;;;7.40;4.28;;;;;;;0.77;59.66;96268.78;4991720;28;20116;-80
2023/12/02 06:23:15;;;;;;;8.93;4.95;;;;;;;0.62;59.99;96265.69;4974883;28;20040;-81
2023/12/02 06:25:40;;;;;;;8.60;4.05;;;;;;;0.78;59.55;96274.72;4965948;28;20516;-79
2023/12/02 06:28:06;;;;;;;12.25;3.83;;;;;;;0.92;58.96;96274.44;4973252;28;20038;-80
2023/12/02 06:30:31;;;;;;;7.60;4.07;;;;;;;1.05;58.17;96265.91;4993192;28;20034;-80
2023/12/02 06:32:57;;;;;;;5.43;3.30;;;;;;;0.84;58.68;96281.56;4981874;28;20125;-82
2023/12/02 06:35:22;;;;;;;7.88;4.22;;;;;;;0.84;59.16;96279.81;5007214;28;20041;-80
2023/12/02 06:37:48;;;;;;;5.82;3.67;;;;;;;0.58;59.64;96278.13;5007579;28;20037;-80
2023/12/02 06:40:13;;;;;;;6.95;4.20;;;;;;;0.60;59.61;96280.50;5000022;28;20034;-80
2023/12/02 06:42:39;;;;;;;7.20;4.13;;;;;;;0.70;59.36;96280.84;4971842;28;20048;-80
2023/12/02 06:45:05;;;;;;;6.18;3.58;;;;;;;0.49;60.13;96287.03;4973434;28;20038;-80
2023/12/02 06:47:31;;;;;;;6.55;3.83;;;;;;;0.51;59.52;96288.41;4975244;28;20132;-80
2023/12/02 06:49:56;;;;;;;6.47;3.63;;;;;;;0.18;60.45;96296.94;4992779;28;20037;-80
2023/12/02 06:52:22;;;;;;;5.80;3.20;;;;;;;0.08;60.80;96311.94;4992016;28;20026;-80
2023/12/02 06:54:47;;;;;;;6.35;3.33;;;;;;;0.27;60.21;96309.53;4991653;28;20522;-80
2023/12/02 06:57:12;;;;;;;7.07;3.05;;;;;;;0.09;60.59;96308.41;4991136;28;20038;-80
2023/12/02 06:59:38;;;;;;;5.50;3.28;;;;;;;0.16;60.49;96298.16;4992026;28;20112;-80
2023/12/02 07:02:03;;;;;;;6.03;4.10;;;;;;;-0.21;61.37;96308.81;4978339;28;20053;-79
2023/12/02 07:04:28;;;;;;;6.72;3.47;;;;;;;-0.13;60.75;96301.94;5008737;28;20118;-80
2023/12/02 07:06:54;;;;;;;6.15;3.70;;;;;;;-0.35;62.33;96312.34;5007459;28;20336;-80
2023/12/02 07:09:19;;;;;;;7.30;3.08;;;;;;;-0.73;63.11;96315.44;5008942;28;20096;-80
2023/12/02 07:11:45;;;;;;;7.05;3.90;;;;;;;-0.44;63.42;96337.31;4991881;28;20029;-80
2023/12/02 07:14:10;;;;;;;7.90;4.10;;;;;;;-0.33;62.59;96327.50;5007529;28;20037;-80
2023/12/02 07:16:36;;;;;;;7.15;3.70;;;;;;;-0.05;61.71;96337.56;5009286;28;20079;-80
2023/12/02 07:19:01;;;;;;;7.38;3.58;;;;;;;0.03;60.97;96341.66;4991271;28;20040;-80
2023/12/02 07:21:27;;;;;;;7.50;3.63;;;;;;;-0.29;61.49;96347.38;5007992;28;20037;-80
2023/12/02 07:23:52;;;;;;;7.03;3.47;;;;;;;-0.31;62.09;96357.03;4997104;28;20060;-80
2023/12/02 07:26:17;;;;;;;8.98;4.10;;;;;;;-0.10;61.88;96353.50;4978552;28;20125;-80
2023/12/02 07:28:43;;;;;;;7.68;3.63;;;;;;;0.09;62.08;96371.59;5008521;28;20038;-85
2023/12/02 07:31:15;;;;;;;7.65;4.05;;;;;;;0.16;61.07;96380.06;4958098;28;20037;-85
2023/12/02 07:33:41;;;;;;;5.82;3.50;;;;;;;-0.15;61.79;96378.09;4988574;28;20034;-86
2023/12/02 07:36:07;;;;;;;5.68;3.20;;;;;;;-0.12;60.77;96377.69;4970503;28;20031;-87
2023/12/02 07:38:33;;;;;;;5.05;2.92;;;;;;;-0.11;60.42;96369.03;4987509;28;20391;-86
2023/12/02 07:40:58;;;;;;;6.63;3.65;;;;;;;-0.01;59.84;96382.22;4972389;28;20056;-86
2023/12/02 07:43:23;;;;;;;6.05;3.17;;;;;;;-0.11;61.11;96389.50;4977365;28;20069;-88
2023/12/02 07:45:50;;;;;;;7.32;3.47;;;;;;;0.05;60.86;96394.22;4965939;28;20210;-84
2023/12/02 07:48:16;;;;;;;5.32;3.17;;;;;;;-0.05;60.50;96398.97;4991243;28;20088;-80
2023/12/02 07:50:41;;;;;;;6.68;3.50;;;;;;;-0.10;61.25;96394.44;5007568;28;20486;-80
2023/12/02 07:53:07;;;;;;;8.73;4.57;;;;;;;-0.01;61.53;96395.03;4989954;28;20180;-79
2023/12/02 07:55:32;;;;;;;6.80;3.85;;;;;;;-0.20;61.96;96414.50;4962779;28;20486;-81
2023/12/02 07:57:58;;;;;;;5.55;3.25;;;;;;;-0.20;61.43;96409.38;4987422;28;20038;-80
2023/12/02 08:00:23;;;;;;;6.38;3.80;;;;;;;0.04;61.30;96412.34;4992164;28;20389;-80
2023/12/02 08:02:49;;;;;;;7.05;3.30;;;;;;;0.03;60.90;96409.00;4980801;28;20034;-81
2023/12/02 08:05:14;;;;;;;8.18;3.70;;;;;;;0.03;60.57;96406.44;5007009;28;20034;-80
2023/12/02 08:07:39;;;;;;;7.60;4.40;;;;;;;-0.34;62.22;96403.44;4990796;28;20034;-80
2023/12/02 08:10:06;;;;;;;6.57;4.10;;;;;;;-0.03;61.61;96417.47;5006940;28;20033;-80
2023/12/02 08:12:32;;;;;;;6.40;3.60;;;;;;;-0.03;61.42;96414.91;5006854;28;20065;-80
2023/12/02 08:14:58;;;;;;;6.30;3.20;;;;;;;0.13;60.49;96417.06;4990984;28;20054;-80
2023/12/02 08:17:24;;;;;;;7.30;3.45;;;;;;;0.08;60.75;96409.19;4974110;28;20108;-80
2023/12/02 08:19:49;;;;;;;5.43;3.25;;;;;;;0.15;60.72;96404.84;4991197;28;20048;-81
2023/12/02 08:22:15;;;;;;;6.05;3.75;;;;;;;0.23;59.50;96415.91;5006929;28;20049;-80
2023/12/02 08:24:43;;;;;;;5.90;3.10;;;;;;;0.10;59.93;96425.13;4972438;28;20045;-80
2023/12/02 08:27:09;;;;;;;4.85;3.00;;;;;;;0.07;60.16;96420.44;5003800;28;20030;-81
2023/12/02 08:29:34;;;;;;;4.65;3.10;;;;;;;0.16;60.07;96418.47;4974638;28;20509;-80
2023/12/02 08:32:00;;;;;;;4.65;2.80;;;;;;;0.25;59.72;96424.94;4964783;28;20034;-81
2023/12/02 08:34:25;;;;;;;5.38;2.70;;;;;;;0.28;58.08;96437.38;4987758;28;20038;-80
2023/12/02 08:36:50;;;;;;;4.93;2.88;;;;;;;-0.12;58.97;96437.34;4983625;28;20045;-80
2023/12/02 08:39:16;;;;;;;5.75;2.90;;;;;;;0.13;59.13;96442.66;4957505;28;20406;-80
2023/12/02 08:41:42;;;;;;;5.55;2.97;;;;;;;0.22;59.09;96442.47;4993546;28;20096;-81
2023/12/02 08:44:07;;;;;;;4.25;2.70;;;;;;;0.12;58.80;96438.53;4990575;28;20034;-80
2023/12/02 08:46:32;;;;;;;5.55;3.05;;;;;;;0.33;57.98;96449.59;4974440;28;20034;-80
2023/12/02 08:48:58;;;;;;;5.40;3.10;;;;;;;0.24;58.27;96454.09;5006702;28;20041;-81
2023/12/02 08:51:23;;;;;;;4.93;2.78;;;;;;;0.25;57.18;96462.56;4982063;28;20124;-80
2023/12/02 08:53:54;;;;;;;5.70;2.95;;;;;;;0.35;57.70;96461.19;5006691;28;20521;-81
2023/12/02 08:56:20;;;;;;;4.95;3.08;;;;;;;0.20;57.95;96454.69;5005974;28;20107;-81
2023/12/02 08:58:45;;;;;;;5.03;3.05;;;;;;;0.30;57.68;96457.66;4991092;28;20056;-80
2023/12/02 09:01:10;;;;;;;5.10;2.63;;;;;;;0.37;58.40;96468.69;5002231;28;20054;-80
2023/12/02 09:03:36;;;;;;;6.03;2.90;;;;;;;0.13;57.48;96454.69;4995850;28;20474;-81
2023/12/02 09:06:03;;;;;;;4.35;2.80;;;;;;;0.30;58.18;96473.78;4998808;28;20088;-80
2023/12/02 09:08:28;;;;;;;4.15;2.60;;;;;;;0.29;57.45;96473.97;4994202;28;20041;-80
2023/12/02 09:10:53;;;;;;;6.03;3.35;;;;;;;0.31;57.78;96474.56;5010886;28;20037;-80
2023/12/02 09:13:43;;;;;;;6.38;3.08;;;;;;;0.51;58.15;96490.72;5010358;28;20125;-82
2023/12/02 09:16:21;;;;;;;6.72;3.25;;;;;;;0.62;57.57;96483.44;5003915;28;20033;-80
2023/12/02 09:18:46;;;;;;;5.70;3.28;;;;;;;0.58;57.50;96477.16;5010224;28;20030;-81
2023/12/02 09:21:21;;;;;;;4.32;2.38;;;;;;;0.55;58.24;96506.53;5009859;28;20517;-79
2023/12/02 09:23:51;;;;;;;5.03;2.63;;;;;;;0.43;57.44;96505.50;5010300;28;20065;-80
2023/12/02 09:26:33;;;;;;;5.15;2.97;;;;;;;0.09;58.31;96518.28;4964644;28;20141;-80
2023/12/02 09:28:58;;;;;;;3.78;2.40;;;;;;;-0.07;58.01;96521.97;5010328;28;20076;-80
2023/12/02 09:31:24;;;;;;;5.30;2.80;;;;;;;0.05;58.63;96511.94;4997096;28;20054;-80
2023/12/02 09:33:57;;;;;;;7.07;2.65;;;;;;;0.16;58.02;96524.19;4985996;28;20034;-80
2023/12/02 09:36:41;;;;;;;4.72;2.42;;;;;;;0.15;57.58;96521.81;4976607;28;20136;-80
2023/12/02 09:39:09;;;;;;;5.65;2.25;;;;;;;0.47;56.97;96533.09;5009553;28;20069;-79
2023/12/02 09:41:45;;;;;;;5.82;2.78;;;;;;;0.31;57.62;96528.34;4998100;28;20429;-81
2023/12/02 09:44:44;;;;;;;5.32;3.00;;;;;;;0.18;57.99;96541.91;4976679;28;20041;-79
2023/12/02 09:47:20;;;;;;;5.07;3.50;;;;;;;0.05;58.50;96550.34;4976446;28;20030;-80
2023/12/02 09:50:18;;;;;;;5.38;3.28;;;;;;;0.07;58.45;96556.06;5010145;28;20033;-85
2023/12/02 09:53:02;;;;;;;4.00;2.33;;;;;;;0.13;56.74;96557.84;4967499;28;20042;-85
2023/12/02 09:55:43;;;;;;;3.67;2.47;;;;;;;0.40;56.50;96563.03;4999525;28;20384;-85
2023/12/02 09:58:41;;;;;;;5.43;3.08;;;;;;;0.33;56.75;96565.59;4954872;28;20050;-85
2023/12/02 10:01:44;;;;;;;7.07;3.80;;;;;;;0.32;56.27;96576.00;4986822;28;20022;-85
2023/12/02 10:04:16;;;;;;;7.15;3.90;;;;;;;0.31;57.64;96572.69;4972346;28;20065;-85
2023/12/02 10:07:03;;;;;;;4.75;2.90;;;;;;;0.44;55.88;96569.34;5003257;28;20061;-84
2023/12/02 10:10:18;;;;;;;5.57;2.85;;;;;;;0.51;57.24;96572.69;4992865;28;20041;-81
2023/12/02 10:13:11;;;;;;;5.22;2.83;;;;;;;0.42;57.00;96571.31;4981052;28;20433;-80
2023/12/02 10:15:39;;;;;;;4.80;2.88;;;;;;;0.33;56.92;96578.38;5008329;28;20030;-80
2023/12/02 10:18:08;;;;;;;4.80;2.47;;;;;;;0.37;56.52;96581.34;4992203;28;20033;-81
2023/12/02 10:20:35;;;;;;;5.07;2.70;;;;;;;0.33;55.77;96570.72;4992821;28;20548;-80
2023/12/02 10:23:12;;;;;;;4.05;2.53;;;;;;;0.54;55.80;96577.44;5009077;28;20061;-81
2023/12/02 10:25:42;;;;;;;4.00;2.58;;;;;;;0.64;55.92;96578.84;4987270;28;20041;-80
2023/12/02 10:28:24;;;;;;;5.20;3.03;;;;;;;0.53;55.93;96568.19;5006096;28;20034;-81
2023/12/02 10:30:50;;;;;;;5.93;3.20;;;;;;;0.42;56.39;96585.91;4994880;28;20129;-81
2023/12/02 10:33:31;;;;;;;4.95;3.10;;;;;;;0.45;56.15;96585.50;4991603;28;20069;-80
2023/12/02 10:36:07;;;;;;;4.72;2.50;;;;;;;0.28;56.60;96573.06;4992262;28;20041;-80
2023/12/02 10:38:45;;;;;;;5.95;3.20;;;;;;;0.33;56.33;96580.16;5008928;28;20034;-81
2023/12/02 10:41:32;;;;;;;7.43;3.70;;;;;;;0.47;57.12;96588.66;4978883;28;20493;-79
2023/12/02 10:44:03;;;;;;;7.05;3.38;;;;;;;0.39;57.51;96581.94;5008849;28;20084;-79
2023/12/02 10:46:29;;;;;;;5.82;3.38;;;;;;;0.46;56.72;96585.28;4977194;28;20038;-80
2023/12/02 10:48:57;;;;;;;4.32;3.03;;;;;;;0.45;56.09;96581.16;5008414;28;20113;-79
2023/12/02 10:51:23;;;;;;;4.72;2.95;;;;;;;0.31;55.85;96587.22;4992166;28;20057;-79
2023/12/02 10:53:49;;;;;;;4.88;2.85;;;;;;;0.25;55.89;96570.09;4992649;28;20037;-81
2023/12/02 10:56:23;;;;;;;5.57;3.53;;;;;;;0.30;55.66;96583.09;4975530;28;20285;-79
2023/12/02 10:58:49;;;;;;;4.90;2.80;;;;;;;0.26;56.91;96576.78;5009002;28;20041;-80
2023/12/02 11:01:29;;;;;;;5.22;2.95;;;;;;;0.50;55.98;96588.28;4955086;28;20050;-85
2023/12/02 11:04:25;;;;;;;6.30;3.40;;;;;;;0.46;56.81;96587.06;4968976;28;20038;-85
2023/12/02 11:06:54;;;;;;;5.97;3.60;;;;;;;0.34;57.08;96590.22;4985442;28;20413;-85
2023/12/02 11:09:41;;;;;;;6.22;3.47;;;;;;;0.49;55.19;96596.94;4983156;28;20038;-85
2023/12/02 11:12:23;;;;;;;6.60;3.67;;;;;;;0.66;55.23;96584.56;4967552;28;20034;-86
2023/12/02 11:14:49;;;;;;;6.50;3.80;;;;;;;0.58;54.80;96590.63;4992115;28;20044;-84
2023/12/02 11:17:39;;;;;;;5.15;2.92;;;;;;;0.63;54.28;96597.75;4991275;28;20030;-84
2023/12/02 11:20:12;;;;;;;6.18;3.58;;;;;;;0.60;55.22;96605.81;5009265;28;20033;-80
2023/12/02 11:23:00;;;;;;;4.75;3.60;;;;;;;0.71;55.02;96611.16;5008341;28;20061;-80
2023/12/02 11:25:41;;;;;;;5.85;3.53;;;;;;;0.67;55.05;96609.16;4980750;28;20161;-80
2023/12/02 11:28:21;;;;;;;5.50;2.88;;;;;;;0.72;54.07;96610.19;5005270;28;20485;-80
2023/12/02 11:30:54;;;;;;;7.22;3.55;;;;;;;0.62;54.68;96612.34;4991235;28;20038;-79
2023/12/02 11:33:34;;;;;;;5.72;3.63;;;;;;;0.66;55.42;96617.84;5000168;28;20037;-80
2023/12/02 11:36:18;;;;;;;5.15;3.00;;;;;;;0.78;54.61;96631.66;5008146;28;20390;-80
2023/12/02 11:39:25;;;;;;;5.35;3.08;;;;;;;0.88;53.18;96628.72;4982307;28;20113;-79
2023/12/02 11:41:55;;;;;;;5.07;2.85;;;;;;;0.71;53.88;96643.69;4944925;28;20487;-80